Time;durP1;ratioP1;P1;durP2;ratioP2;P2;SDS_P1;SDS_P2;PMS_P1;PMS_P2;Temp;Humidity;BMP_temperature;BMP_pressure;BME280_temperature;BME280_humidity;BME280_pressure;Samples;Min_cycle;Max_cycle;Signal;HPM_P1;HPM_P2
2021/03/17 00:01:44;;;;;;;;;;;21.80;34.30;;;;;;491741;240;1486;-45
2021/03/17 00:03:45;;;;;;;;;;;21.80;34.30;;;;;;491562;240;1018;-45
2021/03/17 00:05:47;;;;;;;;;;;21.80;34.30;;;;;;491613;240;1055;-45
2021/03/17 00:07:47;;;;;;;;;;;21.80;34.30;;;;;;491570;241;1620;-45
2021/03/17 00:09:49;;;;;;;;;;;21.80;34.30;;;;;;491658;240;1044;-45
2021/03/17 00:11:50;;;;;;;;;;;21.80;34.30;;;;;;491482;240;1321;-45
2021/03/17 00:13:51;;;;;;;;;;;21.80;34.30;;;;;;491587;240;965;-45
2021/03/17 00:15:53;;;;;;;;;;;21.80;34.30;;;;;;491489;240;1113;-45
2021/03/17 00:17:54;;;;;;;;;;;21.80;34.30;;;;;;491656;240;2128;-45
2021/03/17 00:19:55;;;;;;;;;;;21.80;34.40;;;;;;491622;240;1019;-45
2021/03/17 00:21:56;;;;;;;;;;;21.80;34.30;;;;;;491583;240;1217;-45
2021/03/17 00:23:58;;;;;;;;;;;21.80;34.30;;;;;;491623;240;1186;-45
2021/03/17 00:25:59;;;;;;;;;;;21.80;34.30;;;;;;491827;240;1013;-45
2021/03/17 00:28:01;;;;;;;;;;;21.80;34.30;;;;;;491714;240;1186;-45
2021/03/17 00:30:03;;;;;;;;;;;21.80;34.20;;;;;;491574;240;1041;-45
2021/03/17 00:32:04;;;;;;;;;;;21.80;34.30;;;;;;491618;240;1584;-45
2021/03/17 00:34:05;;;;;;;;;;;21.80;34.30;;;;;;491624;240;1072;-45
2021/03/17 00:36:07;;;;;;;;;;;21.80;34.30;;;;;;491730;240;1158;-45
2021/03/17 00:38:08;;;;;;;;;;;21.80;34.30;;;;;;491639;240;2191;-45
2021/03/17 00:40:09;;;;;;;;;;;21.80;34.30;;;;;;491724;240;1086;-45
2021/03/17 00:42:10;;;;;;;;;;;21.80;34.30;;;;;;491565;239;1310;-45
2021/03/17 00:44:12;;;;;;;;;;;21.80;34.30;;;;;;491862;240;1058;-45
2021/03/17 00:46:13;;;;;;;;;;;21.80;34.30;;;;;;491546;240;1054;-45
2021/03/17 00:48:14;;;;;;;;;;;21.80;34.30;;;;;;491548;240;1213;-45
2021/03/17 00:50:16;;;;;;;;;;;21.90;34.30;;;;;;491538;240;1109;-45
2021/03/17 00:52:17;;;;;;;;;;;21.90;34.30;;;;;;491818;240;1045;-45
2021/03/17 00:54:18;;;;;;;;;;;21.80;34.30;;;;;;491908;240;1063;-45
2021/03/17 00:56:20;;;;;;;;;;;21.80;34.30;;;;;;491552;240;1081;-45
2021/03/17 00:58:21;;;;;;;;;;;21.80;34.30;;;;;;491783;240;2161;-45
2021/03/17 01:00:22;;;;;;;;;;;21.90;34.30;;;;;;491590;240;1058;-46
2021/03/17 01:02:23;;;;;;;;;;;21.80;34.30;;;;;;491643;240;1138;-45
2021/03/17 01:04:25;;;;;;;;;;;21.90;34.30;;;;;;491642;240;1042;-45
2021/03/17 01:06:26;;;;;;;;;;;21.80;34.30;;;;;;491622;240;1069;-45
2021/03/17 01:08:27;;;;;;;;;;;21.80;34.30;;;;;;491680;240;1035;-45
2021/03/17 01:10:28;;;;;;;;;;;21.80;34.30;;;;;;491691;240;1075;-45
2021/03/17 01:12:30;;;;;;;;;;;21.90;34.30;;;;;;491614;240;1123;-45
2021/03/17 01:14:31;;;;;;;;;;;21.90;34.30;;;;;;491571;240;1094;-45
2021/03/17 01:16:32;;;;;;;;;;;21.90;34.30;;;;;;491788;240;1121;-45
2021/03/17 01:18:34;;;;;;;;;;;21.80;34.30;;;;;;491753;240;2192;-45
2021/03/17 01:20:35;;;;;;;;;;;21.80;34.30;;;;;;491616;240;1073;-45
2021/03/17 01:22:36;;;;;;;;;;;21.90;34.30;;;;;;492082;240;1094;-45
2021/03/17 01:24:37;;;;;;;;;;;21.90;34.30;;;;;;491968;240;1106;-45
2021/03/17 01:26:39;;;;;;;;;;;21.90;34.30;;;;;;491712;240;1091;-45
2021/03/17 01:28:42;;;;;;;;;;;21.90;34.30;;;;;;491627;240;1164;-45
2021/03/17 01:30:41;;;;;;;;;;;21.90;34.30;;;;;;491500;242;2427;-45
2021/03/17 01:32:42;;;;;;;;;;;21.90;34.30;;;;;;491707;240;1074;-46
2021/03/17 01:34:45;;;;;;;;;;;21.90;34.30;;;;;;491725;240;1180;-45
2021/03/17 01:36:46;;;;;;;;;;;21.90;34.30;;;;;;491694;240;1128;-45
2021/03/17 01:38:48;;;;;;;;;;;21.90;34.30;;;;;;491620;240;2188;-45
2021/03/17 01:40:49;;;;;;;;;;;21.90;34.30;;;;;;491617;240;1043;-45
2021/03/17 01:42:50;;;;;;;;;;;21.90;34.30;;;;;;491704;240;1170;-45
2021/03/17 01:44:52;;;;;;;;;;;21.90;34.30;;;;;;492059;240;1039;-45
2021/03/17 01:46:53;;;;;;;;;;;21.90;34.20;;;;;;491671;240;1075;-45
2021/03/17 01:48:54;;;;;;;;;;;21.90;34.30;;;;;;491805;240;1041;-45
2021/03/17 01:50:59;;;;;;;;;;;21.90;34.30;;;;;;491603;240;1043;-45
2021/03/17 01:53:00;;;;;;;;;;;21.90;34.30;;;;;;491663;240;1645;-45
2021/03/17 01:55:01;;;;;;;;;;;21.90;34.30;;;;;;491930;240;1076;-45
2021/03/17 01:57:02;;;;;;;;;;;21.90;34.30;;;;;;491512;240;1052;-46
2021/03/17 01:59:04;;;;;;;;;;;21.90;34.30;;;;;;491806;240;2165;-45
2021/03/17 02:01:05;;;;;;;;;;;21.90;34.30;;;;;;491705;240;1065;-45
2021/03/17 02:03:06;;;;;;;;;;;21.90;34.20;;;;;;491866;240;1048;-45
2021/03/17 02:05:08;;;;;;;;;;;21.90;34.30;;;;;;491903;240;1070;-45
2021/03/17 02:07:09;;;;;;;;;;;21.90;34.30;;;;;;491594;240;1060;-45
2021/03/17 02:09:10;;;;;;;;;;;21.90;34.30;;;;;;491693;240;1058;-46
2021/03/17 02:11:11;;;;;;;;;;;21.90;34.30;;;;;;491534;240;1099;-45
2021/03/17 02:13:13;;;;;;;;;;;21.90;34.30;;;;;;491746;240;1161;-45
2021/03/17 02:15:14;;;;;;;;;;;21.90;34.30;;;;;;491598;240;1084;-45
2021/03/17 02:17:15;;;;;;;;;;;21.90;34.30;;;;;;491802;240;1132;-45
2021/03/17 02:19:16;;;;;;;;;;;21.90;34.30;;;;;;491673;240;2183;-45
2021/03/17 02:21:18;;;;;;;;;;;21.90;34.20;;;;;;491716;240;1357;-45
2021/03/17 02:23:19;;;;;;;;;;;21.90;34.20;;;;;;491803;240;1035;-45
2021/03/17 02:25:20;;;;;;;;;;;21.90;34.20;;;;;;491579;240;1052;-45
2021/03/17 02:27:22;;;;;;;;;;;21.90;34.30;;;;;;491666;240;1210;-45
2021/03/17 02:29:23;;;;;;;;;;;21.90;34.30;;;;;;491677;240;1178;-45
2021/03/17 02:31:24;;;;;;;;;;;21.90;34.40;;;;;;491706;240;1259;-45
2021/03/17 02:33:25;;;;;;;;;;;22.00;34.20;;;;;;491586;240;1096;-45
2021/03/17 02:35:27;;;;;;;;;;;21.80;34.40;;;;;;491860;240;1049;-45
2021/03/17 02:37:28;;;;;;;;;;;21.30;35.20;;;;;;491847;240;1094;-45
2021/03/17 02:39:29;;;;;;;;;;;20.80;36.20;;;;;;491575;240;2188;-45
2021/03/17 02:41:31;;;;;;;;;;;20.40;36.90;;;;;;491581;240;1099;-45
2021/03/17 02:43:32;;;;;;;;;;;20.20;37.40;;;;;;491908;240;1372;-45
2021/03/17 02:45:33;;;;;;;;;;;19.90;37.90;;;;;;491626;240;1131;-45
2021/03/17 02:47:34;;;;;;;;;;;19.80;38.10;;;;;;491693;240;1054;-45
2021/03/17 02:49:36;;;;;;;;;;;19.70;38.40;;;;;;491660;240;1039;-45
2021/03/17 02:51:37;;;;;;;;;;;19.60;38.60;;;;;;491688;240;1174;-45
2021/03/17 02:53:38;;;;;;;;;;;19.50;38.70;;;;;;491633;240;1096;-45
2021/03/17 02:55:40;;;;;;;;;;;19.40;38.70;;;;;;491603;240;1066;-45
2021/03/17 02:57:41;;;;;;;;;;;19.40;38.90;;;;;;491833;240;1051;-45
2021/03/17 02:59:42;;;;;;;;;;;19.30;39.00;;;;;;491647;240;2160;-45
2021/03/17 03:01:43;;;;;;;;;;;19.30;39.10;;;;;;491650;240;1300;-45
2021/03/17 03:03:45;;;;;;;;;;;19.20;39.10;;;;;;491782;240;1278;-45
2021/03/17 03:05:46;;;;;;;;;;;19.20;39.30;;;;;;491678;240;1213;-45
2021/03/17 03:07:47;;;;;;;;;;;19.10;39.40;;;;;;491641;240;1047;-45
2021/03/17 03:09:48;;;;;;;;;;;19.00;39.50;;;;;;491574;240;1282;-44
2021/03/17 03:11:50;;;;;;;;;;;18.90;39.60;;;;;;491719;240;1094;-45
2021/03/17 03:13:51;;;;;;;;;;;18.90;39.70;;;;;;491680;239;1505;-45
2021/03/17 03:15:52;;;;;;;;;;;18.80;39.80;;;;;;491658;240;1029;-44
2021/03/17 03:17:54;;;;;;;;;;;18.80;40.00;;;;;;491695;240;1191;-45
2021/03/17 03:19:55;;;;;;;;;;;18.70;40.10;;;;;;491538;240;2200;-45
2021/03/17 03:21:56;;;;;;;;;;;18.60;40.20;;;;;;491895;240;1197;-45
2021/03/17 03:23:57;;;;;;;;;;;18.60;40.20;;;;;;491822;240;1030;-45
2021/03/17 03:25:59;;;;;;;;;;;18.60;40.30;;;;;;491645;240;1185;-45
2021/03/17 03:28:10;;;;;;;;;;;18.50;40.30;;;;;;491645;240;1249;-45
2021/03/17 03:30:02;;;;;;;;;;;18.50;40.40;;;;;;491665;241;2536;-45
2021/03/17 03:32:04;;;;;;;;;;;18.50;40.50;;;;;;491851;240;1177;-45
2021/03/17 03:34:05;;;;;;;;;;;18.40;40.50;;;;;;491620;240;1056;-45
2021/03/17 03:36:07;;;;;;;;;;;18.40;40.60;;;;;;491700;240;1209;-45
2021/03/17 03:38:08;;;;;;;;;;;18.30;40.60;;;;;;492010;240;1163;-44
2021/03/17 03:40:09;;;;;;;;;;;18.30;40.60;;;;;;491643;240;2187;-45
2021/03/17 03:42:11;;;;;;;;;;;18.30;40.70;;;;;;491579;240;1199;-45
2021/03/17 03:44:12;;;;;;;;;;;18.30;40.70;;;;;;491578;240;1121;-45
2021/03/17 03:46:13;;;;;;;;;;;18.20;40.80;;;;;;491793;240;1051;-45
2021/03/17 03:48:14;;;;;;;;;;;18.20;40.80;;;;;;492038;240;1063;-45
2021/03/17 03:50:16;;;;;;;;;;;18.20;40.80;;;;;;491614;240;1068;-45
2021/03/17 03:52:17;;;;;;;;;;;18.20;40.90;;;;;;491589;240;1030;-44
2021/03/17 03:54:18;;;;;;;;;;;18.10;40.90;;;;;;491743;240;1086;-44
2021/03/17 03:56:19;;;;;;;;;;;18.10;40.90;;;;;;491934;240;1189;-45
2021/03/17 03:58:21;;;;;;;;;;;18.10;41.00;;;;;;491686;240;1089;-45
2021/03/17 04:00:22;;;;;;;;;;;18.00;41.00;;;;;;491691;240;2175;-45
2021/03/17 04:02:23;;;;;;;;;;;18.10;41.00;;;;;;491582;240;1263;-45
2021/03/17 04:04:25;;;;;;;;;;;18.00;41.00;;;;;;491719;240;1106;-45
2021/03/17 04:06:26;;;;;;;;;;;18.00;41.10;;;;;;491586;240;1209;-45
2021/03/17 04:08:27;;;;;;;;;;;18.00;41.20;;;;;;491616;240;1062;-45
2021/03/17 04:10:28;;;;;;;;;;;17.90;41.10;;;;;;491619;240;1084;-44
2021/03/17 04:12:30;;;;;;;;;;;17.90;41.10;;;;;;491524;240;1274;-45
2021/03/17 04:14:31;;;;;;;;;;;17.90;41.10;;;;;;491693;240;1176;-44
2021/03/17 04:16:32;;;;;;;;;;;17.90;41.10;;;;;;491645;240;1191;-45
2021/03/17 04:18:33;;;;;;;;;;;17.90;41.20;;;;;;491763;240;1066;-45
2021/03/17 04:20:35;;;;;;;;;;;17.80;41.20;;;;;;491792;240;2192;-45
2021/03/17 04:22:36;;;;;;;;;;;17.80;41.20;;;;;;491682;240;1278;-45
2021/03/17 04:24:37;;;;;;;;;;;17.80;41.30;;;;;;491793;240;1087;-45
2021/03/17 04:26:39;;;;;;;;;;;17.80;41.30;;;;;;491781;240;1354;-45
2021/03/17 04:28:40;;;;;;;;;;;17.80;41.30;;;;;;491608;240;1065;-45
2021/03/17 04:30:41;;;;;;;;;;;17.70;41.30;;;;;;491796;240;1391;-45
2021/03/17 04:32:42;;;;;;;;;;;17.80;41.30;;;;;;491598;240;1175;-45
2021/03/17 04:34:44;;;;;;;;;;;17.80;41.20;;;;;;492014;240;1207;-45
2021/03/17 04:36:45;;;;;;;;;;;18.10;40.60;;;;;;491736;240;1204;-45
2021/03/17 04:38:46;;;;;;;;;;;18.60;39.50;;;;;;491649;240;1088;-45
2021/03/17 04:40:48;;;;;;;;;;;19.00;38.60;;;;;;491655;240;2193;-45
2021/03/17 04:42:49;;;;;;;;;;;19.40;38.00;;;;;;491662;240;1199;-45
2021/03/17 04:44:50;;;;;;;;;;;19.50;37.60;;;;;;491580;240;1179;-45
2021/03/17 04:46:52;;;;;;;;;;;19.70;37.30;;;;;;491763;240;1210;-45
2021/03/17 04:48:53;;;;;;;;;;;19.80;37.10;;;;;;491870;240;1058;-45
2021/03/17 04:50:54;;;;;;;;;;;19.90;36.90;;;;;;491563;240;1712;-45
2021/03/17 04:52:58;;;;;;;;;;;20.00;36.70;;;;;;491751;240;1093;-45
2021/03/17 04:54:59;;;;;;;;;;;20.10;36.50;;;;;;492015;240;1180;-45
2021/03/17 04:57:00;;;;;;;;;;;20.10;36.40;;;;;;491571;240;1209;-45
2021/03/17 04:59:01;;;;;;;;;;;20.20;36.30;;;;;;491718;240;1178;-45
2021/03/17 05:01:03;;;;;;;;;;;20.20;36.10;;;;;;491547;240;2196;-45
2021/03/17 05:03:04;;;;;;;;;;;20.30;36.10;;;;;;491567;240;1104;-45
2021/03/17 05:05:06;;;;;;;;;;;20.30;36.00;;;;;;491631;240;1148;-45
2021/03/17 05:07:07;;;;;;;;;;;20.40;35.90;;;;;;492037;240;1051;-45
2021/03/17 05:09:08;;;;;;;;;;;20.40;35.80;;;;;;491587;240;1106;-45
2021/03/17 05:11:09;;;;;;;;;;;20.40;35.70;;;;;;491594;240;1188;-45
2021/03/17 05:13:11;;;;;;;;;;;20.50;35.70;;;;;;491587;240;1058;-45
2021/03/17 05:15:12;;;;;;;;;;;20.50;35.60;;;;;;491459;240;1168;-45
2021/03/17 05:17:13;;;;;;;;;;;20.50;35.60;;;;;;491801;240;1161;-45
2021/03/17 05:19:15;;;;;;;;;;;20.60;35.50;;;;;;491548;240;1072;-45
2021/03/17 05:21:16;;;;;;;;;;;20.60;35.50;;;;;;491453;240;2196;-45
2021/03/17 05:23:18;;;;;;;;;;;20.60;35.40;;;;;;491763;240;1087;-45
2021/03/17 05:25:19;;;;;;;;;;;20.70;35.40;;;;;;491657;240;1053;-45
2021/03/17 05:27:20;;;;;;;;;;;20.70;35.40;;;;;;491497;240;1043;-45
2021/03/17 05:29:22;;;;;;;;;;;20.70;35.30;;;;;;491482;240;1105;-45
2021/03/17 05:31:23;;;;;;;;;;;20.70;35.30;;;;;;491426;240;1303;-45
2021/03/17 05:33:25;;;;;;;;;;;20.70;35.30;;;;;;491405;240;1140;-45
2021/03/17 05:35:26;;;;;;;;;;;20.80;35.30;;;;;;491306;240;1054;-45
2021/03/17 05:37:27;;;;;;;;;;;20.80;35.20;;;;;;491323;240;1261;-45
2021/03/17 05:39:28;;;;;;;;;;;20.80;35.10;;;;;;491408;240;1064;-45
2021/03/17 05:41:30;;;;;;;;;;;20.80;35.10;;;;;;491336;240;2129;-45
2021/03/17 05:43:31;;;;;;;;;;;20.90;35.10;;;;;;491434;240;1125;-45
2021/03/17 05:45:32;;;;;;;;;;;20.90;35.10;;;;;;491120;238;1390;-45
2021/03/17 05:47:34;;;;;;;;;;;20.90;35.10;;;;;;491474;240;1229;-45
2021/03/17 05:49:35;;;;;;;;;;;20.90;35.00;;;;;;491564;240;1123;-45
2021/03/17 05:51:36;;;;;;;;;;;20.90;35.00;;;;;;491351;240;1149;-45
2021/03/17 05:53:37;;;;;;;;;;;20.90;35.00;;;;;;491471;240;1002;-45
2021/03/17 05:55:39;;;;;;;;;;;21.00;35.00;;;;;;491490;240;1149;-45
2021/03/17 05:57:40;;;;;;;;;;;21.00;35.00;;;;;;491565;240;1546;-45
2021/03/17 05:59:41;;;;;;;;;;;21.00;34.90;;;;;;491401;240;2145;-45
2021/03/17 06:01:42;;;;;;;;;;;21.00;34.90;;;;;;491324;240;1156;-45
2021/03/17 06:03:44;;;;;;;;;;;21.00;34.90;;;;;;491422;240;1070;-45
2021/03/17 06:05:45;;;;;;;;;;;21.00;34.80;;;;;;491373;240;1122;-45
2021/03/17 06:07:47;;;;;;;;;;;21.10;34.80;;;;;;491523;240;1074;-45
2021/03/17 06:09:48;;;;;;;;;;;21.10;34.80;;;;;;491466;240;1027;-45
2021/03/17 06:11:50;;;;;;;;;;;21.10;34.80;;;;;;491521;240;1240;-45
2021/03/17 06:13:51;;;;;;;;;;;21.10;34.80;;;;;;491526;240;1049;-45
2021/03/17 06:15:52;;;;;;;;;;;21.10;34.80;;;;;;491406;240;1381;-45
2021/03/17 06:17:53;;;;;;;;;;;21.10;34.80;;;;;;491428;240;1095;-45
2021/03/17 06:19:55;;;;;;;;;;;21.10;34.80;;;;;;491397;240;2187;-45
2021/03/17 06:21:57;;;;;;;;;;;21.10;34.80;;;;;;491444;240;1081;-45
2021/03/17 06:23:57;;;;;;;;;;;21.10;34.70;;;;;;491390;240;2155;-45
2021/03/17 06:25:59;;;;;;;;;;;21.20;34.80;;;;;;491340;240;1052;-45
2021/03/17 06:28:00;;;;;;;;;;;21.20;34.70;;;;;;491140;240;1225;-45
2021/03/17 06:30:02;;;;;;;;;;;21.20;34.70;;;;;;491350;240;1078;-45
2021/03/17 06:32:03;;;;;;;;;;;21.20;34.70;;;;;;491383;240;1137;-45
2021/03/17 06:34:04;;;;;;;;;;;21.20;34.70;;;;;;491315;240;1102;-45
2021/03/17 06:36:05;;;;;;;;;;;21.20;34.70;;;;;;491304;240;1120;-45
2021/03/17 06:38:07;;;;;;;;;;;21.20;34.70;;;;;;491307;240;1108;-45
2021/03/17 06:40:08;;;;;;;;;;;21.20;34.60;;;;;;491279;240;2179;-45
2021/03/17 06:42:09;;;;;;;;;;;21.20;34.60;;;;;;491195;240;1101;-45
2021/03/17 06:44:10;;;;;;;;;;;21.20;34.60;;;;;;491368;240;1029;-45
2021/03/17 06:46:12;;;;;;;;;;;21.20;34.60;;;;;;491380;239;1316;-45
2021/03/17 06:48:13;;;;;;;;;;;21.20;34.60;;;;;;491343;240;1333;-45
2021/03/17 06:50:15;;;;;;;;;;;21.30;34.60;;;;;;491318;240;1085;-45
2021/03/17 06:52:16;;;;;;;;;;;21.30;34.60;;;;;;491262;240;1139;-45
2021/03/17 06:54:17;;;;;;;;;;;21.30;34.60;;;;;;490953;240;1212;-45
2021/03/17 06:56:18;;;;;;;;;;;21.30;34.60;;;;;;490895;240;1519;-45
2021/03/17 06:58:19;;;;;;;;;;;21.30;34.60;;;;;;490954;240;1171;-45
2021/03/17 07:00:21;;;;;;;;;;;21.30;34.60;;;;;;491052;240;2148;-44
2021/03/17 07:02:22;;;;;;;;;;;21.30;34.50;;;;;;491052;240;1202;-45
2021/03/17 07:04:25;;;;;;;;;;;21.30;34.50;;;;;;491063;240;1142;-45
2021/03/17 07:06:25;;;;;;;;;;;21.30;34.50;;;;;;491150;241;1885;-45
2021/03/17 07:08:26;;;;;;;;;;;21.30;34.50;;;;;;491134;240;1197;-45
2021/03/17 07:10:27;;;;;;;;;;;21.30;34.50;;;;;;491163;240;1089;-45
2021/03/17 07:12:29;;;;;;;;;;;21.30;34.50;;;;;;491209;240;1057;-45
2021/03/17 07:14:30;;;;;;;;;;;21.40;34.50;;;;;;491040;240;1052;-45
2021/03/17 07:16:31;;;;;;;;;;;21.40;34.50;;;;;;490995;240;1472;-45
2021/03/17 07:18:33;;;;;;;;;;;21.40;34.50;;;;;;491149;240;1102;-45
2021/03/17 07:20:34;;;;;;;;;;;21.40;34.50;;;;;;490996;240;2149;-45
2021/03/17 07:22:35;;;;;;;;;;;21.40;34.50;;;;;;491033;240;1177;-45
2021/03/17 07:24:36;;;;;;;;;;;21.40;34.50;;;;;;491192;240;1132;-45
2021/03/17 07:26:38;;;;;;;;;;;21.40;34.50;;;;;;490960;240;1165;-45
2021/03/17 07:28:39;;;;;;;;;;;21.40;34.50;;;;;;490638;240;1201;-45
2021/03/17 07:30:40;;;;;;;;;;;21.40;34.50;;;;;;490681;241;1356;-45
2021/03/17 07:32:41;;;;;;;;;;;21.40;34.50;;;;;;490931;240;1517;-45
2021/03/17 07:34:43;;;;;;;;;;;21.40;34.50;;;;;;490998;240;1094;-45
2021/03/17 07:36:45;;;;;;;;;;;21.40;34.50;;;;;;490969;240;1326;-45
2021/03/17 07:38:45;;;;;;;;;;;21.40;34.50;;;;;;490988;241;2079;-45
2021/03/17 07:40:47;;;;;;;;;;;21.50;34.50;;;;;;490785;240;2191;-45
2021/03/17 07:42:48;;;;;;;;;;;21.40;34.40;;;;;;491032;240;1204;-45
2021/03/17 07:44:49;;;;;;;;;;;21.40;34.40;;;;;;490791;240;1517;-45
2021/03/17 07:46:50;;;;;;;;;;;21.50;34.40;;;;;;490756;240;1323;-45
2021/03/17 07:48:52;;;;;;;;;;;21.50;34.40;;;;;;491101;240;1181;-45
2021/03/17 07:50:53;;;;;;;;;;;21.50;34.40;;;;;;491059;240;1106;-45
2021/03/17 07:52:54;;;;;;;;;;;21.50;34.40;;;;;;490952;240;1095;-45
2021/03/17 07:54:55;;;;;;;;;;;21.50;34.40;;;;;;490839;240;1162;-45
2021/03/17 07:56:57;;;;;;;;;;;21.50;34.40;;;;;;490806;240;1424;-45
2021/03/17 07:58:58;;;;;;;;;;;21.50;34.40;;;;;;490985;240;1091;-45
2021/03/17 08:00:59;;;;;;;;;;;21.50;34.40;;;;;;490859;241;2181;-45
2021/03/17 08:03:01;;;;;;;;;;;21.50;34.30;;;;;;490739;242;1278;-45
2021/03/17 08:05:02;;;;;;;;;;;21.50;34.40;;;;;;490728;240;1207;-45
2021/03/17 08:07:03;;;;;;;;;;;21.50;34.40;;;;;;490753;240;1087;-45
2021/03/17 08:09:05;;;;;;;;;;;21.50;34.30;;;;;;490951;240;1195;-45
2021/03/17 08:11:06;;;;;;;;;;;21.60;34.30;;;;;;490979;240;1442;-45
2021/03/17 08:13:08;;;;;;;;;;;21.50;34.30;;;;;;491042;240;1512;-45
2021/03/17 08:15:09;;;;;;;;;;;21.50;34.30;;;;;;490906;240;1162;-45
2021/03/17 08:17:10;;;;;;;;;;;21.60;34.30;;;;;;490959;240;1326;-45
2021/03/17 08:19:11;;;;;;;;;;;21.60;34.30;;;;;;491018;240;1083;-45
2021/03/17 08:21:13;;;;;;;;;;;21.60;34.30;;;;;;490845;240;2184;-45
2021/03/17 08:23:14;;;;;;;;;;;21.60;34.30;;;;;;491055;240;1080;-45
2021/03/17 08:25:15;;;;;;;;;;;21.60;34.30;;;;;;490815;241;1246;-45
2021/03/17 08:27:17;;;;;;;;;;;21.60;34.30;;;;;;490901;240;1250;-45
2021/03/17 08:29:18;;;;;;;;;;;21.60;34.30;;;;;;491551;240;954;-45
2021/03/17 08:31:19;;;;;;;;;;;21.60;34.30;;;;;;491021;240;1020;-45
2021/03/17 08:33:20;;;;;;;;;;;21.60;34.30;;;;;;490969;240;2093;-45
2021/03/17 08:35:22;;;;;;;;;;;21.60;34.30;;;;;;491502;241;1148;-45
2021/03/17 08:37:23;;;;;;;;;;;21.60;34.30;;;;;;491536;240;1146;-45
2021/03/17 08:39:24;;;;;;;;;;;21.60;34.30;;;;;;491550;240;913;-45
2021/03/17 08:41:25;;;;;;;;;;;21.60;34.30;;;;;;491446;240;2180;-45
2021/03/17 08:43:27;;;;;;;;;;;21.60;34.30;;;;;;491551;240;882;-45
2021/03/17 08:45:28;;;;;;;;;;;21.60;34.30;;;;;;491491;240;900;-45
2021/03/17 08:47:30;;;;;;;;;;;21.60;34.40;;;;;;491336;240;1293;-45
2021/03/17 08:49:31;;;;;;;;;;;21.60;34.40;;;;;;491080;240;1095;-45
2021/03/17 08:51:32;;;;;;;;;;;21.60;34.30;;;;;;491560;240;914;-45
2021/03/17 08:53:33;;;;;;;;;;;21.60;34.30;;;;;;491628;240;871;-45
2021/03/17 08:55:34;;;;;;;;;;;21.60;34.30;;;;;;491576;240;922;-45
2021/03/17 08:57:36;;;;;;;;;;;21.60;34.30;;;;;;491516;240;1002;-45
2021/03/17 08:59:37;;;;;;;;;;;21.60;34.30;;;;;;491569;240;921;-46
2021/03/17 09:01:38;;;;;;;;;;;21.60;34.30;;;;;;491379;241;2232;-45
2021/03/17 09:03:39;;;;;;;;;;;21.60;34.30;;;;;;490995;240;1045;-45
2021/03/17 09:05:41;;;;;;;;;;;21.60;34.30;;;;;;491475;240;1280;-45
2021/03/17 09:07:42;;;;;;;;;;;21.60;34.30;;;;;;490977;240;1095;-45
2021/03/17 09:09:43;;;;;;;;;;;21.60;34.30;;;;;;491523;240;929;-45
2021/03/17 09:11:45;;;;;;;;;;;21.60;34.30;;;;;;491337;240;1107;-45
2021/03/17 09:13:46;;;;;;;;;;;21.60;34.30;;;;;;491157;240;890;-45
2021/03/17 09:15:47;;;;;;;;;;;21.60;34.30;;;;;;491152;240;1143;-45
2021/03/17 09:17:48;;;;;;;;;;;21.60;34.30;;;;;;491460;240;1158;-45
2021/03/17 09:19:50;;;;;;;;;;;21.60;34.30;;;;;;490932;240;1313;-45
2021/03/17 09:21:51;;;;;;;;;;;21.60;34.30;;;;;;490923;240;2189;-45
2021/03/17 09:23:52;;;;;;;;;;;21.70;34.30;;;;;;490896;240;929;-45
2021/03/17 09:25:53;;;;;;;;;;;21.70;34.30;;;;;;490882;240;1016;-45
2021/03/17 09:27:55;;;;;;;;;;;21.60;34.20;;;;;;491211;240;1149;-45
2021/03/17 09:29:56;;;;;;;;;;;21.70;34.30;;;;;;490925;240;1208;-45
2021/03/17 09:31:59;;;;;;;;;;;21.70;34.30;;;;;;490502;240;1215;-45
2021/03/17 09:33:59;;;;;;;;;;;21.70;34.30;;;;;;490499;242;1453;-45
2021/03/17 09:36:00;;;;;;;;;;;21.70;34.30;;;;;;490536;240;1332;-45
2021/03/17 09:38:01;;;;;;;;;;;21.70;34.30;;;;;;490495;240;1200;-45
2021/03/17 09:40:02;;;;;;;;;;;21.70;34.30;;;;;;490644;240;1082;-45
2021/03/17 09:42:04;;;;;;;;;;;21.70;34.30;;;;;;490546;240;2180;-45
2021/03/17 09:44:05;;;;;;;;;;;21.70;34.20;;;;;;490768;240;1167;-45
2021/03/17 09:46:06;;;;;;;;;;;21.70;34.20;;;;;;490591;240;1170;-45
2021/03/17 09:48:08;;;;;;;;;;;21.70;34.30;;;;;;490621;240;1458;-45
2021/03/17 09:50:09;;;;;;;;;;;21.70;34.20;;;;;;490649;240;1208;-45
2021/03/17 09:52:12;;;;;;;;;;;21.70;34.20;;;;;;490542;240;1369;-45
2021/03/17 09:54:12;;;;;;;;;;;21.70;34.20;;;;;;490638;241;1723;-45
2021/03/17 09:56:13;;;;;;;;;;;21.70;34.20;;;;;;490616;240;1251;-45
2021/03/17 09:58:14;;;;;;;;;;;21.70;34.20;;;;;;490684;240;1117;-45
2021/03/17 10:00:16;;;;;;;;;;;21.70;34.30;;;;;;490760;241;1224;-45
2021/03/17 10:02:18;;;;;;;;;;;21.70;34.20;;;;;;490813;240;2192;-45
2021/03/17 10:04:18;;;;;;;;;;;21.70;34.20;;;;;;491127;241;1788;-45
2021/03/17 10:06:19;;;;;;;;;;;21.70;34.20;;;;;;491068;240;1185;-45
2021/03/17 10:08:21;;;;;;;;;;;21.80;34.10;;;;;;490958;240;980;-45
2021/03/17 10:10:22;;;;;;;;;;;21.80;34.20;;;;;;490862;241;996;-45
2021/03/17 10:12:23;;;;;;;;;;;21.70;34.10;;;;;;490498;242;2241;-45
2021/03/17 10:14:25;;;;;;;;;;;21.80;34.10;;;;;;491153;241;906;-45
2021/03/17 10:16:26;;;;;;;;;;;21.70;34.10;;;;;;491034;240;1340;-45
2021/03/17 10:18:27;;;;;;;;;;;21.70;34.20;;;;;;490950;237;5425;-45
2021/03/17 10:20:28;;;;;;;;;;;21.70;34.20;;;;;;484126;245;1047;-45
2021/03/17 10:22:30;;;;;;;;;;;21.70;34.20;;;;;;484002;245;2203;-45
2021/03/17 10:24:31;;;;;;;;;;;21.70;34.20;;;;;;484059;245;892;-45
2021/03/17 10:26:33;;;;;;;;;;;21.70;34.20;;;;;;483321;245;1555;-45
2021/03/17 10:28:34;;;;;;;;;;;21.70;34.20;;;;;;484535;244;1800;-45
2021/03/17 10:30:35;;;;;;;;;;;21.70;34.20;;;;;;484466;244;882;-45
2021/03/17 10:32:36;;;;;;;;;;;21.70;34.20;;;;;;483995;245;924;-45
2021/03/17 10:34:38;;;;;;;;;;;21.70;34.20;;;;;;484364;244;1170;-45
2021/03/17 10:36:39;;;;;;;;;;;21.70;34.20;;;;;;484375;245;1284;-45
2021/03/17 10:38:40;;;;;;;;;;;21.70;34.20;;;;;;484558;244;888;-45
2021/03/17 10:40:41;;;;;;;;;;;21.70;34.20;;;;;;484483;244;1279;-45
2021/03/17 10:42:43;;;;;;;;;;;21.70;34.20;;;;;;484441;244;2184;-46
2021/03/17 10:44:44;;;;;;;;;;;21.70;34.20;;;;;;484432;244;930;-45
2021/03/17 10:46:45;;;;;;;;;;;21.70;34.10;;;;;;484553;242;1294;-45
2021/03/17 10:48:46;;;;;;;;;;;21.80;34.20;;;;;;484357;244;857;-45
2021/03/17 10:50:48;;;;;;;;;;;21.70;34.20;;;;;;483858;245;2010;-45
2021/03/17 10:52:49;;;;;;;;;;;21.70;34.20;;;;;;483874;245;1028;-45
2021/03/17 10:54:50;;;;;;;;;;;21.80;34.20;;;;;;484376;244;901;-45
2021/03/17 10:56:52;;;;;;;;;;;21.80;34.20;;;;;;483975;244;1195;-45
2021/03/17 10:58:53;;;;;;;;;;;21.70;34.20;;;;;;484459;244;891;-45
2021/03/17 11:00:54;;;;;;;;;;;21.80;34.20;;;;;;484389;244;1281;-45
2021/03/17 11:02:55;;;;;;;;;;;21.80;34.20;;;;;;484454;244;2196;-45
2021/03/17 11:04:57;;;;;;;;;;;21.80;34.10;;;;;;484344;244;1193;-45
2021/03/17 11:06:58;;;;;;;;;;;21.80;34.20;;;;;;484539;244;1199;-45
2021/03/17 11:08:59;;;;;;;;;;;21.80;34.20;;;;;;484072;245;1419;-45
2021/03/17 11:11:00;;;;;;;;;;;21.80;34.20;;;;;;484355;244;1102;-45
2021/03/17 11:13:02;;;;;;;;;;;21.80;34.20;;;;;;483989;245;981;-45
2021/03/17 11:15:03;;;;;;;;;;;21.80;34.20;;;;;;484439;244;964;-45
2021/03/17 11:17:04;;;;;;;;;;;21.80;34.10;;;;;;484329;244;1090;-45
2021/03/17 11:19:06;;;;;;;;;;;21.80;34.20;;;;;;484464;244;967;-45
2021/03/17 11:21:07;;;;;;;;;;;21.80;34.10;;;;;;484089;244;1207;-45
2021/03/17 11:23:08;;;;;;;;;;;21.80;34.10;;;;;;484074;245;2228;-45
2021/03/17 11:25:11;;;;;;;;;;;21.80;34.10;;;;;;484601;244;1104;-45
2021/03/17 11:27:11;;;;;;;;;;;21.80;34.20;;;;;;484184;245;1323;-45
2021/03/17 11:29:12;;;;;;;;;;;21.80;34.20;;;;;;484525;244;980;-45
2021/03/17 11:31:13;;;;;;;;;;;21.80;34.10;;;;;;483882;245;1113;-45
2021/03/17 11:33:14;;;;;;;;;;;21.80;34.10;;;;;;484458;244;903;-45
2021/03/17 11:35:16;;;;;;;;;;;21.80;34.10;;;;;;484271;244;1283;-45
2021/03/17 11:37:17;;;;;;;;;;;21.80;34.10;;;;;;483942;245;925;-45
2021/03/17 11:39:18;;;;;;;;;;;21.80;34.10;;;;;;484067;245;1166;-45
2021/03/17 11:41:20;;;;;;;;;;;21.80;34.10;;;;;;484034;245;1315;-45
2021/03/17 11:43:21;;;;;;;;;;;21.80;34.10;;;;;;484512;244;2187;-45
2021/03/17 11:45:22;;;;;;;;;;;21.90;34.20;;;;;;484494;244;874;-45
2021/03/17 11:47:23;;;;;;;;;;;21.80;34.20;;;;;;484454;244;1203;-45
2021/03/17 11:49:25;;;;;;;;;;;21.80;34.20;;;;;;484469;244;1446;-45
2021/03/17 11:51:26;;;;;;;;;;;21.80;34.20;;;;;;484117;244;1188;-45
2021/03/17 11:53:27;;;;;;;;;;;21.80;34.30;;;;;;484506;244;1307;-45
2021/03/17 11:55:29;;;;;;;;;;;21.80;34.20;;;;;;484007;245;920;-45
2021/03/17 11:57:30;;;;;;;;;;;21.80;34.20;;;;;;483987;245;1199;-45